Time;durP1;ratioP1;P1;durP2;ratioP2;P2;SDS_P1;SDS_P2;PMS_P1;PMS_P2;Temp;Humidity;BMP_temperature;BMP_pressure;BME280_temperature;BME280_humidity;BME280_pressure;Samples;Min_cycle;Max_cycle;Signal;HPM_P1;HPM_P2
2021/08/03 00:02:07;;;;;;;;;;;;;;;17.35;76.53;98870.66;5013302;28;20415;-62
2021/08/03 00:04:39;;;;;;;;;;;;;;;17.28;76.45;98879.78;5013013;28;19963;-62
2021/08/03 00:07:04;;;;;;;;;;;;;;;17.27;82.57;98878.13;5022765;28;20359;-62
2021/08/03 00:09:30;;;;;;;;;;;;;;;17.15;84.90;98871.88;5032468;28;19920;-62
2021/08/03 00:11:56;;;;;;;;;;;;;;;17.02;81.09;98864.00;5012845;28;19914;-62
2021/08/03 00:14:21;;;;;;;;;;;;;;;17.18;84.66;98876.09;4994956;28;20595;-62
2021/08/03 00:16:47;;;;;;;;;;;;;;;17.16;81.44;98875.34;4995503;28;19971;-62
2021/08/03 00:19:13;;;;;;;;;;;;;;;17.07;81.39;98867.16;4995656;28;19913;-62
2021/08/03 00:21:38;;;;;;;;;;;;;;;17.02;75.95;98874.41;4995578;28;19971;-62
2021/08/03 00:24:04;;;;;;;;;;;;;;;17.17;83.84;98877.00;5024445;28;19917;-62
2021/08/03 00:26:29;;;;;;;;;;;;;;;17.00;79.85;98878.88;5012887;28;19918;-62
2021/08/03 00:28:55;;;;;;;;;;;;;;;17.15;81.11;98874.50;5005573;28;19925;-62
2021/08/03 00:31:23;;;;;;;;;;;;;;;16.33;82.04;98880.22;4995429;28;19914;-62
2021/08/03 00:33:49;;;;;;;;;;;;;;;16.69;82.86;98878.09;5012900;28;19999;-62
2021/08/03 00:36:15;;;;;;;;;;;;;;;16.88;81.04;98877.03;5012415;28;20401;-62
2021/08/03 00:38:41;;;;;;;;;;;;;;;16.89;80.94;98873.47;5012530;28;19913;-62
2021/08/03 00:41:08;;;;;;;;;;;;;;;16.35;84.32;98880.97;5016468;28;19913;-61
2021/08/03 00:43:34;;;;;;;;;;;;;;;16.71;85.99;98876.22;5025099;28;19913;-62
2021/08/03 00:45:59;;;;;;;;;;;;;;;16.77;84.61;98874.19;5012510;28;19921;-62
2021/08/03 00:48:24;;;;;;;;;;;;;;;16.77;84.71;98877.63;5012169;28;19948;-62
2021/08/03 00:50:50;;;;;;;;;;;;;;;16.71;77.61;98884.00;5011613;28;19914;-62
2021/08/03 00:53:15;;;;;;;;;;;;;;;16.12;91.97;98885.69;5010795;28;19914;-62
2021/08/03 00:55:41;;;;;;;;;;;;;;;16.29;91.69;98880.41;5012612;28;19940;-62
2021/08/03 00:58:07;;;;;;;;;;;;;;;16.63;87.56;98882.81;5012462;28;19913;-62
2021/08/03 01:00:32;;;;;;;;;;;;;;;16.67;82.99;98877.34;5011788;28;20391;-62
2021/08/03 01:02:58;;;;;;;;;;;;;;;16.33;80.86;98875.88;5012234;28;19913;-62
2021/08/03 01:05:24;;;;;;;;;;;;;;;16.56;81.44;98884.94;5012023;28;20390;-62
2021/08/03 01:08:07;;;;;;;;;;;;;;;16.68;88.25;98876.41;5012143;28;20011;-62
2021/08/03 01:10:47;;;;;;;;;;;;;;;16.52;85.79;98875.63;5009044;28;19921;-62
2021/08/03 01:13:16;;;;;;;;;;;;;;;16.43;87.36;98873.56;5031761;28;19921;-62
2021/08/03 01:16:00;;;;;;;;;;;;;;;16.41;84.17;98875.41;5015169;28;19924;-62
2021/08/03 01:18:25;;;;;;;;;;;;;;;16.09;88.75;98872.91;4994075;28;19917;-62
2021/08/03 01:20:53;;;;;;;;;;;;;;;16.09;91.71;98872.91;5011749;28;19995;-62
2021/08/03 01:23:27;;;;;;;;;;;;;;;15.88;89.44;98878.38;5012033;28;19963;-61
2021/08/03 01:26:11;;;;;;;;;;;;;;;16.48;81.49;98876.72;5011692;28;19913;-61
2021/08/03 01:28:42;;;;;;;;;;;;;;;16.44;87.80;98876.06;4994308;28;19917;-62
2021/08/03 01:31:15;;;;;;;;;;;;;;;16.55;89.29;98870.25;4994709;28;19916;-62
2021/08/03 01:33:41;;;;;;;;;;;;;;;15.73;95.03;98871.44;4997345;28;19986;-62
2021/08/03 01:36:06;;;;;;;;;;;;;;;16.15;93.48;98867.38;4994575;28;19920;-62
2021/08/03 01:38:32;;;;;;;;;;;;;;;16.29;83.57;98859.59;4993555;28;19914;-62
2021/08/03 01:41:04;;;;;;;;;;;;;;;16.14;81.93;98862.25;4994496;28;20333;-62
2021/08/03 01:43:30;;;;;;;;;;;;;;;16.18;87.22;98861.97;5006005;28;19921;-62
2021/08/03 01:45:55;;;;;;;;;;;;;;;16.38;83.02;98862.59;5011689;28;19917;-62
2021/08/03 01:48:21;;;;;;;;;;;;;;;16.44;85.78;98862.22;5011583;28;20435;-62
2021/08/03 01:50:49;;;;;;;;;;;;;;;16.18;84.78;98861.97;5006498;28;20366;-62
2021/08/03 01:53:15;;;;;;;;;;;;;;;16.16;87.33;98863.81;5014220;28;20558;-62
2021/08/03 01:55:40;;;;;;;;;;;;;;;16.24;87.53;98861.63;5013443;28;19913;-62
2021/08/03 01:58:06;;;;;;;;;;;;;;;16.27;86.58;98853.66;5013445;28;19920;-61
2021/08/03 02:00:31;;;;;;;;;;;;;;;16.14;86.92;98854.44;5001209;28;20363;-61
2021/08/03 02:02:56;;;;;;;;;;;;;;;15.96;85.39;98856.31;5005614;28;19932;-61
2021/08/03 02:05:21;;;;;;;;;;;;;;;16.12;85.05;98853.69;5019028;28;20382;-62
2021/08/03 02:07:47;;;;;;;;;;;;;;;15.96;86.00;98853.72;4993232;28;19913;-61
2021/08/03 02:10:12;;;;;;;;;;;;;;;16.00;88.19;98852.63;5011000;28;19913;-61
2021/08/03 02:12:38;;;;;;;;;;;;;;;15.77;94.34;98851.34;5011183;28;19917;-61
2021/08/03 02:15:04;;;;;;;;;;;;;;;16.05;92.62;98854.03;5010948;28;20498;-61
2021/08/03 02:17:29;;;;;;;;;;;;;;;16.04;89.68;98854.97;5011440;28;19961;-61
2021/08/03 02:19:56;;;;;;;;;;;;;;;15.63;90.56;98850.31;5009956;28;21125;-61
2021/08/03 02:22:22;;;;;;;;;;;;;;;15.86;92.32;98846.47;4993666;28;19913;-61
2021/08/03 02:24:47;;;;;;;;;;;;;;;15.64;92.16;98851.97;4992738;28;19913;-61
2021/08/03 02:27:12;;;;;;;;;;;;;;;15.48;91.28;98849.38;5011045;28;19918;-61
2021/08/03 02:29:39;;;;;;;;;;;;;;;15.45;91.76;98852.16;5010162;28;19913;-61
2021/08/03 02:32:15;;;;;;;;;;;;;;;15.64;90.12;98848.53;4993540;28;19918;-61
2021/08/03 02:34:42;;;;;;;;;;;;;;;15.52;89.93;98852.66;5010899;28;20016;-61
2021/08/03 02:37:09;;;;;;;;;;;;;;;16.00;91.82;98852.63;4993862;28;19985;-62
2021/08/03 02:39:35;;;;;;;;;;;;;;;15.76;86.89;98850.50;5011366;28;19918;-62
2021/08/03 02:42:00;;;;;;;;;;;;;;;15.29;97.33;98846.13;5010837;28;19966;-61
2021/08/03 02:44:26;;;;;;;;;;;;;;;15.38;90.09;98860.34;5008807;28;19946;-62
2021/08/03 02:46:55;;;;;;;;;;;;;;;15.62;87.43;98852.97;5009572;28;19961;-61
2021/08/03 02:52:09;;;;;;;;;;;;;;;15.45;93.64;98851.31;5010024;28;19921;-61
2021/08/03 02:54:35;;;;;;;;;;;;;;;15.66;88.47;98849.28;5009319;28;19918;-61
2021/08/03 02:57:01;;;;;;;;;;;;;;;15.43;93.01;98853.16;5010853;28;19914;-61
2021/08/03 02:59:26;;;;;;;;;;;;;;;15.40;91.65;98842.94;5009674;28;19913;-61
2021/08/03 03:01:52;;;;;;;;;;;;;;;15.41;93.37;98850.63;5010875;28;19913;-61
2021/08/03 03:04:20;;;;;;;;;;;;;;;15.34;93.20;98848.47;5007197;28;20383;-61
2021/08/03 03:06:47;;;;;;;;;;;;;;;15.51;90.36;98850.13;5010230;28;20345;-60
2021/08/03 03:09:13;;;;;;;;;;;;;;;15.43;93.86;98847.97;4992649;28;19952;-61
2021/08/03 03:11:38;;;;;;;;;;;;;;;15.82;94.49;98844.94;4992459;28;20027;-61
2021/08/03 03:14:03;;;;;;;;;;;;;;;15.81;89.58;98842.47;4992844;28;19960;-61
2021/08/03 03:16:29;;;;;;;;;;;;;;;15.80;88.85;98836.41;4992728;28;20403;-61
2021/08/03 03:18:55;;;;;;;;;;;;;;;15.65;90.31;98840.69;5011033;28;19967;-61
2021/08/03 03:21:21;;;;;;;;;;;;;;;15.53;91.16;98845.69;4993431;28;20004;-61
2021/08/03 03:23:50;;;;;;;;;;;;;;;15.25;93.05;98849.78;5004608;28;19964;-62
2021/08/03 03:26:15;;;;;;;;;;;;;;;15.44;96.03;98845.28;5010617;28;19923;-61
2021/08/03 03:28:41;;;;;;;;;;;;;;;15.11;97.08;98847.94;4993271;28;19997;-61
2021/08/03 03:31:06;;;;;;;;;;;;;;;15.47;95.08;98845.13;4992950;28;19917;-61
2021/08/03 03:33:31;;;;;;;;;;;;;;;15.48;96.98;98846.78;5010481;28;19913;-61
2021/08/03 03:35:58;;;;;;;;;;;;;;;15.32;95.57;98840.75;5010384;28;19924;-61
2021/08/03 03:38:24;;;;;;;;;;;;;;;15.14;95.01;98844.34;5004989;28;20012;-61
2021/08/03 03:40:50;;;;;;;;;;;;;;;15.10;94.71;98835.91;5010160;28;20000;-62
2021/08/03 03:43:19;;;;;;;;;;;;;;;15.40;94.05;98838.59;5014016;28;19960;-61
2021/08/03 03:45:45;;;;;;;;;;;;;;;15.32;94.17;98830.38;4994232;28;19914;-61
2021/08/03 03:48:11;;;;;;;;;;;;;;;15.67;93.33;98838.84;4996534;28;19944;-61
2021/08/03 03:50:47;;;;;;;;;;;;;;;15.55;91.17;98849.03;4996871;28;20387;-61
2021/08/03 03:53:14;;;;;;;;;;;;;;;15.66;90.75;98841.50;4995937;28;19917;-61
2021/08/03 03:55:40;;;;;;;;;;;;;;;15.49;92.19;98837.25;4995929;28;19913;-60
2021/08/03 03:58:06;;;;;;;;;;;;;;;14.80;96.29;98838.31;4996329;28;19913;-61
2021/08/03 04:00:34;;;;;;;;;;;;;;;15.34;93.73;98841.50;5013619;28;20508;-61
2021/08/03 04:02:59;;;;;;;;;;;;;;;15.29;91.43;98846.13;5013923;28;20000;-61
2021/08/03 04:05:24;;;;;;;;;;;;;;;15.39;91.98;98842.09;4980152;28;20039;-62
2021/08/03 04:07:50;;;;;;;;;;;;;;;15.25;92.82;98844.59;5013383;28;19917;-61
2021/08/03 04:10:17;;;;;;;;;;;;;;;15.22;97.66;98844.78;5013911;28;19918;-61
2021/08/03 04:12:43;;;;;;;;;;;;;;;15.11;97.08;98836.72;4996299;28;19921;-61
2021/08/03 04:15:09;;;;;;;;;;;;;;;15.33;96.33;98834.66;5013881;28;20450;-61
2021/08/03 04:17:34;;;;;;;;;;;;;;;15.68;92.24;98826.69;5012875;28;20399;-61
2021/08/03 04:19:59;;;;;;;;;;;;;;;15.68;94.04;98830.09;5013435;28;19980;-61
2021/08/03 04:22:26;;;;;;;;;;;;;;;15.56;93.17;98832.56;5013781;28;19956;-61
2021/08/03 04:24:51;;;;;;;;;;;;;;;15.74;89.21;98830.75;5013243;28;20382;-61
2021/08/03 04:27:18;;;;;;;;;;;;;;;15.87;88.03;98832.56;5013137;28;19960;-61
2021/08/03 04:29:43;;;;;;;;;;;;;;;16.22;91.42;98834.91;4996397;28;19942;-61
2021/08/03 04:32:08;;;;;;;;;;;;;;;16.35;96.53;98834.19;5017941;28;19913;-60
2021/08/03 04:34:34;;;;;;;;;;;;;;;16.39;91.55;98833.09;5012252;28;20432;-61
2021/08/03 04:36:59;;;;;;;;;;;;;;;16.53;90.55;98833.09;5012118;28;19918;-60
2021/08/03 04:39:25;;;;;;;;;;;;;;;16.11;90.58;98834.69;5012858;28;19918;-61
2021/08/03 04:41:50;;;;;;;;;;;;;;;16.19;89.54;98837.66;5011912;28;20000;-61
2021/08/03 04:44:15;;;;;;;;;;;;;;;16.48;91.04;98837.75;5012788;28;19913;-61
2021/08/03 04:46:41;;;;;;;;;;;;;;;16.59;97.42;98835.34;4995332;28;20406;-61
2021/08/03 04:49:06;;;;;;;;;;;;;;;16.38;90.69;98836.63;4995426;28;19920;-62
2021/08/03 04:51:32;;;;;;;;;;;;;;;15.99;96.04;98835.41;4995361;28;19948;-61
2021/08/03 04:53:57;;;;;;;;;;;;;;;15.62;99.58;98833.06;5012115;28;19964;-60
2021/08/03 04:56:22;;;;;;;;;;;;;;;15.16;100.00;98829.53;5012853;28;20375;-61
2021/08/03 04:58:48;;;;;;;;;;;;;;;15.21;100.00;98835.28;4994855;28;19925;-61
2021/08/03 05:01:13;;;;;;;;;;;;;;;15.23;100.00;98836.06;5012741;28;19913;-61
2021/08/03 05:03:38;;;;;;;;;;;;;;;14.88;100.00;98835.34;5011997;28;20272;-61
2021/08/03 05:06:04;;;;;;;;;;;;;;;15.24;100.00;98832.56;5011646;28;19972;-61
2021/08/03 05:08:29;;;;;;;;;;;;;;;15.82;94.56;98834.56;5011733;28;19913;-61
2021/08/03 05:10:54;;;;;;;;;;;;;;;15.72;99.93;98828.22;5011675;28;19917;-61
2021/08/03 05:13:20;;;;;;;;;;;;;;;15.16;100.00;98819.97;5011639;28;19984;-61
2021/08/03 05:15:45;;;;;;;;;;;;;;;15.02;100.00;98820.72;4994122;28;19914;-61
2021/08/03 05:18:10;;;;;;;;;;;;;;;15.15;100.00;98825.28;5012193;28;20008;-62
2021/08/03 05:20:36;;;;;;;;;;;;;;;15.30;100.00;98821.00;5011664;28;19920;-61
2021/08/03 05:23:01;;;;;;;;;;;;;;;15.32;100.00;98814.81;5012315;28;19917;-61
2021/08/03 05:25:27;;;;;;;;;;;;;;;15.32;100.00;98817.41;5011189;28;19914;-62
2021/08/03 05:27:52;;;;;;;;;;;;;;;15.40;100.00;98822.19;5011985;28;19923;-61
2021/08/03 05:30:17;;;;;;;;;;;;;;;15.51;100.00;98814.66;5011686;28;19913;-61
2021/08/03 05:32:43;;;;;;;;;;;;;;;15.70;97.34;98814.47;5012051;28;19913;-61
2021/08/03 05:35:08;;;;;;;;;;;;;;;16.27;97.28;98819.03;5011816;28;19921;-62
2021/08/03 05:37:33;;;;;;;;;;;;;;;16.27;100.00;98819.88;4994427;28;19914;-62
2021/08/03 05:40:02;;;;;;;;;;;;;;;16.75;96.57;98824.03;5011968;28;19996;-62
2021/08/03 05:42:27;;;;;;;;;;;;;;;17.20;91.45;98820.41;5010410;28;20391;-63
2021/08/03 05:44:53;;;;;;;;;;;;;;;17.12;89.16;98818.28;5009852;28;19920;-62
2021/08/03 05:47:18;;;;;;;;;;;;;;;17.07;95.01;98822.09;5010232;28;19917;-62
2021/08/03 05:49:43;;;;;;;;;;;;;;;16.75;95.54;98824.03;5009841;28;19975;-62
2021/08/03 05:52:09;;;;;;;;;;;;;;;16.55;100.00;98818.25;5010262;28;19913;-62
2021/08/03 05:54:34;;;;;;;;;;;;;;;16.68;100.00;98821.78;4991687;28;20137;-62
2021/08/03 05:57:00;;;;;;;;;;;;;;;16.70;100.00;98817.34;5009640;28;19913;-62
2021/08/03 05:59:25;;;;;;;;;;;;;;;16.75;98.44;98817.06;5007912;28;19914;-62
2021/08/03 06:01:50;;;;;;;;;;;;;;;16.42;100.00;98812.97;5008720;28;20005;-62
2021/08/03 06:04:16;;;;;;;;;;;;;;;17.30;100.00;98811.09;5007386;28;19917;-62
2021/08/03 06:06:42;;;;;;;;;;;;;;;17.68;93.97;98814.81;5009414;28;19917;-62
2021/08/03 06:09:11;;;;;;;;;;;;;;;17.88;95.02;98810.94;4991616;28;19924;-62
2021/08/03 06:11:43;;;;;;;;;;;;;;;17.87;93.39;98812.72;5007245;28;19920;-62
2021/08/03 06:14:09;;;;;;;;;;;;;;;18.03;94.02;98809.13;5008139;28;20402;-62
2021/08/03 06:16:34;;;;;;;;;;;;;;;18.14;94.44;98810.06;5008528;28;19918;-62
2021/08/03 06:19:02;;;;;;;;;;;;;;;17.80;95.15;98807.97;5008636;28;20389;-62
2021/08/03 06:21:27;;;;;;;;;;;;;;;17.09;100.00;98802.84;5010346;28;20395;-63
2021/08/03 06:23:53;;;;;;;;;;;;;;;17.11;100.00;98801.00;4991020;28;19924;-63
2021/08/03 06:26:19;;;;;;;;;;;;;;;17.74;96.16;98802.25;5006609;28;20294;-62
2021/08/03 06:28:45;;;;;;;;;;;;;;;16.96;97.28;98796.75;5007169;28;19914;-62
2021/08/03 06:31:11;;;;;;;;;;;;;;;17.18;99.74;98791.06;4984631;28;19924;-62
2021/08/03 06:33:36;;;;;;;;;;;;;;;17.01;100.00;98804.25;4987356;28;19917;-62
2021/08/03 06:36:01;;;;;;;;;;;;;;;17.12;100.00;98797.47;5006847;28;19920;-62
2021/08/03 06:38:27;;;;;;;;;;;;;;;17.03;98.64;98795.44;5001741;28;19914;-62
2021/08/03 06:40:58;;;;;;;;;;;;;;;17.13;100.00;98798.31;5003518;28;19918;-62
2021/08/03 06:43:27;;;;;;;;;;;;;;;17.12;100.00;98797.47;5004958;28;20000;-62
2021/08/03 06:46:09;;;;;;;;;;;;;;;17.38;98.06;98808.03;4988549;28;20007;-61
2021/08/03 06:48:47;;;;;;;;;;;;;;;18.06;96.09;98803.69;4989279;28;19922;-62
2021/08/03 06:51:13;;;;;;;;;;;;;;;18.31;93.02;98800.28;5006687;28;19917;-62
2021/08/03 06:53:44;;;;;;;;;;;;;;;17.73;97.65;98802.31;5006070;28;19978;-62
2021/08/03 06:56:10;;;;;;;;;;;;;;;17.45;100.00;98793.69;5006004;28;19972;-62
2021/08/03 06:58:38;;;;;;;;;;;;;;;17.36;100.00;98794.28;4989640;28;20371;-62
2021/08/03 07:01:03;;;;;;;;;;;;;;;17.61;100.00;98790.09;5005492;28;19999;-62
2021/08/03 07:03:34;;;;;;;;;;;;;;;17.78;100.00;98797.66;5006586;28;19921;-62
2021/08/03 07:06:00;;;;;;;;;;;;;;;18.14;96.39;98797.03;5006320;28;19941;-62
2021/08/03 07:08:25;;;;;;;;;;;;;;;18.29;96.27;98797.81;4988481;28;19921;-62
2021/08/03 07:10:51;;;;;;;;;;;;;;;17.44;98.55;98794.59;4988534;28;19952;-61
2021/08/03 07:13:21;;;;;;;;;;;;;;;17.93;98.44;98798.47;5005345;28;19961;-62
2021/08/03 07:15:46;;;;;;;;;;;;;;;18.74;96.67;98795.59;4989421;28;20030;-62
2021/08/03 07:18:12;;;;;;;;;;;;;;;18.94;91.17;98802.09;4993333;28;19968;-61
2021/08/03 07:20:39;;;;;;;;;;;;;;;18.98;94.72;98794.88;5010508;28;20306;-62
2021/08/03 07:23:04;;;;;;;;;;;;;;;18.79;92.36;98798.78;4991830;28;19917;-62
2021/08/03 07:25:31;;;;;;;;;;;;;;;19.17;92.91;98800.47;4993165;28;19920;-62
2021/08/03 07:27:56;;;;;;;;;;;;;;;19.23;96.61;98794.81;4994562;28;19921;-62
2021/08/03 07:30:23;;;;;;;;;;;;;;;19.32;87.04;98795.13;5011747;28;19920;-62
2021/08/03 07:32:48;;;;;;;;;;;;;;;19.61;92.02;98788.63;4994012;28;19964;-62
2021/08/03 07:35:13;;;;;;;;;;;;;;;19.79;81.79;98796.09;4993320;28;19929;-61
2021/08/03 07:37:39;;;;;;;;;;;;;;;19.11;83.15;98803.53;5011546;28;19922;-62
2021/08/03 07:40:05;;;;;;;;;;;;;;;19.69;81.13;98792.50;5008272;28;19917;-62
2021/08/03 07:42:30;;;;;;;;;;;;;;;19.00;84.23;98800.84;5009686;28;19933;-62
2021/08/03 07:44:55;;;;;;;;;;;;;;;19.30;82.50;98803.06;5007433;28;19928;-62
2021/08/03 07:47:21;;;;;;;;;;;;;;;19.53;85.67;98796.19;5008927;28;19921;-62
2021/08/03 07:49:55;;;;;;;;;;;;;;;20.04;80.76;98798.56;5008836;28;19913;-62
2021/08/03 07:52:23;;;;;;;;;;;;;;;19.72;78.91;98792.25;5009378;28;20576;-62
2021/08/03 07:54:52;;;;;;;;;;;;;;;19.96;79.14;98794.88;5008968;28;19918;-62
2021/08/03 07:57:17;;;;;;;;;;;;;;;19.34;79.31;98796.69;5008352;28;19967;-62
2021/08/03 07:59:43;;;;;;;;;;;;;;;21.06;79.33;98790.84;5008851;28;19918;-62
2021/08/03 08:02:08;;;;;;;;;;;;;;;20.41;73.50;98792.34;5008379;28;19917;-61
2021/08/03 08:04:34;;;;;;;;;;;;;;;20.86;76.02;98789.78;5009441;28;20071;-62
2021/08/03 08:06:59;;;;;;;;;;;;;;;21.15;71.50;98800.59;4988370;28;19921;-62
2021/08/03 08:09:25;;;;;;;;;;;;;;;19.68;76.40;98796.81;5004627;28;19936;-62
2021/08/03 08:11:50;;;;;;;;;;;;;;;20.02;76.50;98794.38;4987961;28;19917;-62
2021/08/03 08:14:15;;;;;;;;;;;;;;;20.05;77.07;98795.00;5005214;28;20040;-61
2021/08/03 08:16:41;;;;;;;;;;;;;;;20.12;74.56;98784.09;5003837;28;20740;-61
2021/08/03 08:19:06;;;;;;;;;;;;;;;20.78;75.28;98785.16;5002641;28;19925;-62
2021/08/03 08:21:34;;;;;;;;;;;;;;;20.66;69.31;98778.25;5001975;28;19922;-61
2021/08/03 08:24:02;;;;;;;;;;;;;;;20.86;72.87;98784.56;5004953;28;19976;-62
2021/08/03 08:26:28;;;;;;;;;;;;;;;20.98;69.13;98782.75;5003775;28;19935;-62
2021/08/03 08:28:54;;;;;;;;;;;;;;;21.57;65.72;98779.81;5003186;28;20551;-62
2021/08/03 08:31:19;;;;;;;;;;;;;;;21.47;66.04;98779.72;5005393;28;19917;-62
2021/08/03 08:33:44;;;;;;;;;;;;;;;22.24;62.45;98785.75;5005967;28;19922;-61
2021/08/03 08:36:10;;;;;;;;;;;;;;;22.12;62.45;98779.69;5005784;28;20759;-62
2021/08/03 08:38:35;;;;;;;;;;;;;;;22.04;66.67;98787.38;5006753;28;20496;-62
2021/08/03 08:41:00;;;;;;;;;;;;;;;21.28;58.99;98775.13;5007746;28;19917;-62
2021/08/03 08:43:26;;;;;;;;;;;;;;;21.63;58.80;98775.88;4990890;28;19971;-62
2021/08/03 08:45:53;;;;;;;;;;;;;;;21.59;62.29;98777.06;4986578;28;19971;-62
2021/08/03 08:48:19;;;;;;;;;;;;;;;21.48;55.39;98781.41;5008340;28;19944;-62
2021/08/03 08:50:44;;;;;;;;;;;;;;;22.05;58.51;98771.50;5007585;28;20643;-62
2021/08/03 08:53:09;;;;;;;;;;;;;;;22.67;58.80;98764.59;5008282;28;19913;-61
2021/08/03 08:55:35;;;;;;;;;;;;;;;22.84;56.66;98762.28;5007066;28;20399;-62
2021/08/03 08:58:01;;;;;;;;;;;;;;;22.31;50.30;98765.91;5005803;28;19924;-62
2021/08/03 09:00:27;;;;;;;;;;;;;;;22.25;60.70;98755.94;5005296;28;19921;-62
2021/08/03 09:02:53;;;;;;;;;;;;;;;22.20;59.84;98747.59;5004817;28;19917;-62
2021/08/03 09:05:28;;;;;;;;;;;;;;;22.41;60.51;98748.41;5003096;28;19983;-62
2021/08/03 09:07:54;;;;;;;;;;;;;;;22.92;55.56;98741.44;5003594;28;19969;-62
2021/08/03 09:10:38;;;;;;;;;;;;;;;22.21;52.45;98747.47;5003474;28;19918;-62
2021/08/03 09:13:05;;;;;;;;;;;;;;;22.25;51.79;98740.19;5002962;28;20029;-62
2021/08/03 09:15:31;;;;;;;;;;;;;;;22.47;58.40;98737.41;5003399;28;19913;-62
2021/08/03 09:18:11;;;;;;;;;;;;;;;22.53;53.59;98731.66;5003132;28;19928;-61
2021/08/03 09:20:37;;;;;;;;;;;;;;;22.91;57.20;98735.34;5002501;28;19917;-62
2021/08/03 09:23:02;;;;;;;;;;;;;;;22.22;56.91;98743.91;4998426;28;19924;-62
2021/08/03 09:25:28;;;;;;;;;;;;;;;21.58;62.23;98739.56;5001937;28;19917;-61
2021/08/03 09:27:53;;;;;;;;;;;;;;;23.21;59.63;98738.91;5001975;28;19933;-62
2021/08/03 09:30:18;;;;;;;;;;;;;;;22.98;59.60;98744.34;4983649;28;19920;-62
2021/08/03 09:32:45;;;;;;;;;;;;;;;23.09;50.97;98738.19;5001555;28;19917;-62
2021/08/03 09:35:14;;;;;;;;;;;;;;;21.96;50.57;98742.59;5002953;28;19928;-62
2021/08/03 09:37:40;;;;;;;;;;;;;;;22.22;50.08;98745.69;5000910;28;20556;-61
2021/08/03 09:40:26;;;;;;;;;;;;;;;22.70;49.58;98738.06;4998424;28;20000;-62
2021/08/03 09:43:03;;;;;;;;;;;;;;;22.17;52.86;98739.97;4997206;28;20012;-62
2021/08/03 09:45:30;;;;;;;;;;;;;;;22.49;52.61;98740.75;4994395;28;19924;-62
2021/08/03 09:48:06;;;;;;;;;;;;;;;23.19;51.59;98738.22;5000268;28;19922;-61
2021/08/03 09:50:32;;;;;;;;;;;;;;;22.85;45.08;98735.88;5002325;28;19949;-62
2021/08/03 09:52:57;;;;;;;;;;;;;;;23.50;51.59;98730.22;4985400;28;19917;-62
2021/08/03 09:55:23;;;;;;;;;;;;;;;24.39;46.06;98732.63;4985598;28;20483;-62
2021/08/03 09:57:48;;;;;;;;;;;;;;;24.46;50.34;98723.16;5005137;28;19917;-62
2021/08/03 10:00:23;;;;;;;;;;;;;;;23.75;45.04;98713.91;5005985;28;19914;-62
2021/08/03 10:02:49;;;;;;;;;;;;;;;24.94;49.85;98721.31;5005331;28;19919;-61
2021/08/03 10:05:14;;;;;;;;;;;;;;;24.05;43.73;98725.22;4988718;28;19917;-62
2021/08/03 10:07:39;;;;;;;;;;;;;;;23.12;46.61;98731.84;5006265;28;19924;-62
2021/08/03 10:10:05;;;;;;;;;;;;;;;22.62;44.07;98729.16;5005018;28;19955;-61
2021/08/03 10:12:31;;;;;;;;;;;;;;;23.26;42.63;98720.94;5005944;28;20496;-62
2021/08/03 10:14:56;;;;;;;;;;;;;;;23.69;47.99;98724.13;5006372;28;19929;-62
2021/08/03 10:17:21;;;;;;;;;;;;;;;24.09;47.20;98723.16;5006169;28;19957;-62
2021/08/03 10:19:47;;;;;;;;;;;;;;;23.46;51.00;98724.41;5005842;28;19936;-62
2021/08/03 10:22:18;;;;;;;;;;;;;;;24.67;52.65;98715.06;5007246;28;20004;-62
2021/08/03 10:25:02;;;;;;;;;;;;;;;24.95;43.51;98718.53;4988624;28;19987;-62
2021/08/03 10:27:43;;;;;;;;;;;;;;;24.54;53.01;98718.06;5006603;28;19924;-62
2021/08/03 10:30:09;;;;;;;;;;;;;;;24.61;52.01;98710.41;5007882;28;19914;-62
2021/08/03 10:32:36;;;;;;;;;;;;;;;24.77;47.42;98717.66;4987230;28;19918;-62
2021/08/03 10:35:01;;;;;;;;;;;;;;;24.66;49.96;98710.78;5004077;28;19913;-62
2021/08/03 10:37:47;;;;;;;;;;;;;;;25.59;49.45;98719.38;5004438;28;19925;-62
2021/08/03 10:40:12;;;;;;;;;;;;;;;25.57;46.40;98718.69;5004709;28;19917;-62
2021/08/03 10:42:37;;;;;;;;;;;;;;;25.26;50.18;98707.69;4987231;28;20859;-62
2021/08/03 10:45:10;;;;;;;;;;;;;;;25.65;48.79;98715.28;5001810;28;19917;-62
2021/08/03 10:47:41;;;;;;;;;;;;;;;25.87;49.08;98717.47;4971272;28;19921;-62
2021/08/03 10:50:07;;;;;;;;;;;;;;;25.06;47.92;98709.59;5005541;28;20272;-62
2021/08/03 10:52:54;;;;;;;;;;;;;;;25.51;46.65;98714.00;5009891;28;20007;-62
2021/08/03 10:55:28;;;;;;;;;;;;;;;24.86;46.21;98708.91;5010019;28;19921;-62
2021/08/03 10:58:18;;;;;;;;;;;;;;;25.28;48.83;98708.38;5011185;28;19917;-62
2021/08/03 11:00:47;;;;;;;;;;;;;;;24.81;44.09;98722.50;5010555;28;20315;-62
2021/08/03 11:03:31;;;;;;;;;;;;;;;25.40;46.62;98717.69;5009539;28;19917;-62
2021/08/03 11:05:57;;;;;;;;;;;;;;;25.43;47.12;98712.13;5008722;28;19932;-62
2021/08/03 11:08:29;;;;;;;;;;;;;;;25.59;46.62;98710.59;5008628;28;19925;-62
2021/08/03 11:11:05;;;;;;;;;;;;;;;25.00;48.58;98716.28;5008855;28;19922;-61
2021/08/03 11:13:37;;;;;;;;;;;;;;;25.23;43.56;98716.72;5007986;28;19926;-62
2021/08/03 11:16:03;;;;;;;;;;;;;;;25.49;44.33;98712.50;5008117;28;20405;-62
2021/08/03 11:18:49;;;;;;;;;;;;;;;25.24;45.39;98712.28;4991313;28;19949;-61
2021/08/03 11:21:15;;;;;;;;;;;;;;;25.12;49.07;98709.00;4998627;28;19925;-62
2021/08/03 11:23:52;;;;;;;;;;;;;;;25.45;49.48;98715.47;5008587;28;20322;-62
2021/08/03 11:26:19;;;;;;;;;;;;;;;25.57;46.34;98721.31;5008021;28;19924;-62
2021/08/03 11:29:00;;;;;;;;;;;;;;;24.53;44.51;98718.19;4991975;28;19988;-61
2021/08/03 11:31:42;;;;;;;;;;;;;;;22.40;53.42;98717.91;4989909;28;19948;-62
2021/08/03 11:34:07;;;;;;;;;;;;;;;24.19;49.81;98710.78;5008416;28;19964;-62
2021/08/03 11:36:36;;;;;;;;;;;;;;;24.63;47.09;98714.53;5007676;28;19964;-62
2021/08/03 11:39:02;;;;;;;;;;;;;;;24.70;47.71;98722.69;5007914;28;19925;-62
2021/08/03 11:41:27;;;;;;;;;;;;;;;23.85;48.36;98708.63;4991077;28;19914;-62
2021/08/03 11:43:53;;;;;;;;;;;;;;;22.52;51.24;98714.22;5008441;28;20276;-62
2021/08/03 11:46:27;;;;;;;;;;;;;;;24.17;48.72;98708.28;5005534;28;19988;-62
2021/08/03 11:49:05;;;;;;;;;;;;;;;23.83;45.62;98704.50;5008406;28;19921;-62
2021/08/03 11:51:34;;;;;;;;;;;;;;;24.83;44.29;98701.28;5008484;28;20387;-62
2021/08/03 11:54:12;;;;;;;;;;;;;;;23.68;43.90;98707.53;5009277;28;19917;-62
2021/08/03 11:56:37;;;;;;;;;;;;;;;24.05;43.18;98704.19;5008393;28;19921;-62
2021/08/03 11:59:03;;;;;;;;;;;;;;;24.15;44.51;98710.25;5007696;28;20391;-61
2021/08/03 12:01:46;;;;;;;;;;;;;;;24.65;44.68;98705.66;4990207;28;20330;-62
2021/08/03 12:04:13;;;;;;;;;;;;;;;24.40;45.05;98702.69;5008194;28;20355;-62
2021/08/03 12:06:38;;;;;;;;;;;;;;;24.73;45.76;98697.88;5005968;28;19917;-62
2021/08/03 12:09:04;;;;;;;;;;;;;;;25.06;45.26;98704.31;4991204;28;19917;-62
2021/08/03 12:11:29;;;;;;;;;;;;;;;25.12;42.84;98708.19;4991473;28;19928;-62
2021/08/03 12:13:55;;;;;;;;;;;;;;;25.10;42.89;98694.31;5008508;28;20032;-61
2021/08/03 12:16:30;;;;;;;;;;;;;;;24.75;44.51;98695.91;5007391;28;20575;-61
2021/08/03 12:18:55;;;;;;;;;;;;;;;25.48;43.38;98695.00;4990135;28;20445;-62
2021/08/03 12:21:20;;;;;;;;;;;;;;;24.61;40.05;98690.16;5007304;28;19917;-61
2021/08/03 12:23:46;;;;;;;;;;;;;;;24.69;47.23;98683.34;5007466;28;20295;-61
2021/08/03 12:26:17;;;;;;;;;;;;;;;24.21;47.03;98691.25;5007387;28;20052;-62
2021/08/03 12:28:52;;;;;;;;;;;;;;;25.11;48.14;98685.41;5007389;28;19928;-61
2021/08/03 12:31:22;;;;;;;;;;;;;;;25.00;45.35;98684.69;5007658;28;19918;-62
2021/08/03 12:33:48;;;;;;;;;;;;;;;24.83;46.25;98680.19;5006912;28;19918;-62
2021/08/03 12:36:15;;;;;;;;;;;;;;;25.07;45.15;98686.72;5007627;28;19921;-61
2021/08/03 12:38:41;;;;;;;;;;;;;;;25.40;46.63;98687.88;5005834;28;20402;-62
2021/08/03 12:41:19;;;;;;;;;;;;;;;24.71;44.01;98682.22;4992251;28;20003;-62
2021/08/03 12:43:45;;;;;;;;;;;;;;;24.10;44.30;98680.06;4987851;28;20273;-61
2021/08/03 12:46:10;;;;;;;;;;;;;;;25.16;45.67;98681.38;4986534;28;19918;-62
2021/08/03 12:48:37;;;;;;;;;;;;;;;24.59;48.02;98680.75;5005308;28;19925;-62
2021/08/03 12:51:03;;;;;;;;;;;;;;;24.98;45.78;98670.81;5003031;28;19925;-62